Time;durP1;ratioP1;P1;durP2;ratioP2;P2;SDS_P1;SDS_P2;PMS_P1;PMS_P2;Temp;Humidity;BMP_temperature;BMP_pressure;BME280_temperature;BME280_humidity;BME280_pressure;Samples;Min_cycle;Max_cycle;Signal;HPM_P1;HPM_P2
2021/08/07 00:00:14;;;;;;;7.35;5.07;;;;;;;;;;6243996;23;20420;-83
2021/08/07 00:02:41;;;;;;;8.65;4.82;;;;;;;;;;6244839;23;20442;-83
2021/08/07 00:05:08;;;;;;;12.18;5.05;;;;;;;;;;6246299;23;20208;-83
2021/08/07 00:07:35;;;;;;;10.57;5.75;;;;;;;;;;6263309;23;20039;-83
2021/08/07 00:10:02;;;;;;;8.27;4.97;;;;;;;;;;6260119;23;20073;-83
2021/08/07 00:12:29;;;;;;;13.02;5.75;;;;;;;;;;6218958;23;20078;-83
2021/08/07 00:14:56;;;;;;;8.02;5.50;;;;;;;;;;6247843;23;20095;-83
2021/08/07 00:17:22;;;;;;;12.90;5.88;;;;;;;;;;6232238;23;20012;-83
2021/08/07 00:19:52;;;;;;;16.55;6.20;;;;;;;;;;6256603;23;20111;-83
2021/08/07 00:22:19;;;;;;;10.27;6.03;;;;;;;;;;6244881;23;20091;-83
2021/08/07 00:24:45;;;;;;;12.73;5.78;;;;;;;;;;6244086;23;20115;-83
2021/08/07 00:27:12;;;;;;;11.77;6.63;;;;;;;;;;6218809;23;20079;-83
2021/08/07 00:29:38;;;;;;;10.48;5.80;;;;;;;;;;6245159;23;20114;-83
2021/08/07 00:32:06;;;;;;;9.38;5.63;;;;;;;;;;6229533;23;20032;-82
2021/08/07 00:34:32;;;;;;;9.45;5.80;;;;;;;;;;6270258;22;20372;-83
2021/08/07 00:37:03;;;;;;;11.30;6.03;;;;;;;;;;6251845;22;20345;-82
2021/08/07 00:39:30;;;;;;;9.07;7.15;;;;;;;;;;6249377;22;20088;-83
2021/08/07 00:41:57;;;;;;;9.45;5.63;;;;;;;;;;6249428;22;20098;-81
2021/08/07 00:44:24;;;;;;;10.15;5.78;;;;;;;;;;6249573;22;20161;-81
2021/08/07 00:46:51;;;;;;;7.80;5.88;;;;;;;;;;6276931;22;20268;-81
2021/08/07 00:49:18;;;;;;;9.20;5.50;;;;;;;;;;6277856;22;20055;-82
2021/08/07 00:51:45;;;;;;;11.80;6.40;;;;;;;;;;6253680;22;20031;-82
2021/08/07 00:54:13;;;;;;;9.80;5.93;;;;;;;;;;6271346;22;20026;-81
2021/08/07 00:56:40;;;;;;;9.68;6.32;;;;;;;;;;6296824;22;20059;-81
2021/08/07 00:59:07;;;;;;;9.38;6.28;;;;;;;;;;6297592;22;20028;-82
2021/08/07 01:01:41;;;;;;;9.25;6.60;;;;;;;;;;6296264;22;20038;-81
2021/08/07 01:04:11;;;;;;;8.43;5.88;;;;;;;;;;6286912;22;20039;-82
2021/08/07 01:06:41;;;;;;;18.05;6.10;;;;;;;;;;6253129;22;20106;-82
2021/08/07 01:09:07;;;;;;;10.07;6.50;;;;;;;;;;6250853;22;20054;-82
2021/08/07 01:11:48;;;;;;;8.70;6.03;;;;;;;;;;6278853;22;20114;-82
2021/08/07 01:14:17;;;;;;;14.98;6.72;;;;;;;;;;6252269;22;20031;-82
2021/08/07 01:16:46;;;;;;;10.13;7.07;;;;;;;;;;6253414;22;20028;-82
2021/08/07 01:19:17;;;;;;;16.95;6.82;;;;;;;;;;6286522;22;20063;-82
2021/08/07 01:21:49;;;;;;;10.68;6.13;;;;;;;;;;6295624;22;20216;-81
2021/08/07 01:24:25;;;;;;;15.38;5.78;;;;;;;;;;6296619;22;20027;-82
2021/08/07 01:26:55;;;;;;;8.90;5.47;;;;;;;;;;6267591;22;20028;-84
2021/08/07 01:29:23;;;;;;;15.55;5.80;;;;;;;;;;6254240;22;20027;-83
2021/08/07 01:31:50;;;;;;;13.32;5.18;;;;;;;;;;6252480;22;20091;-83
2021/08/07 01:34:17;;;;;;;8.18;5.97;;;;;;;;;;6252162;22;20037;-83
2021/08/07 01:36:45;;;;;;;12.77;5.95;;;;;;;;;;6251228;22;20378;-83
2021/08/07 01:39:12;;;;;;;11.13;5.60;;;;;;;;;;6277108;22;20020;-82
2021/08/07 01:41:38;;;;;;;12.13;6.38;;;;;;;;;;6275921;22;20019;-82
2021/08/07 01:44:05;;;;;;;13.50;6.05;;;;;;;;;;6276371;22;20433;-82
2021/08/07 01:46:52;;;;;;;11.57;6.43;;;;;;;;;;6278116;22;20355;-81
2021/08/07 01:49:21;;;;;;;8.63;6.50;;;;;;;;;;6243344;22;20490;-81
2021/08/07 01:51:52;;;;;;;12.20;6.63;;;;;;;;;;6250356;22;20087;-81
2021/08/07 01:54:21;;;;;;;9.07;6.15;;;;;;;;;;6250938;22;20038;-81
2021/08/07 01:56:48;;;;;;;9.65;6.97;;;;;;;;;;6251507;22;20103;-82
2021/08/07 01:59:16;;;;;;;13.30;7.97;;;;;;;;;;6250322;22;20557;-81
2021/08/07 02:01:45;;;;;;;10.82;7.65;;;;;;;;;;6249808;22;20054;-81
2021/08/07 02:04:13;;;;;;;13.13;7.47;;;;;;;;;;6249253;22;20027;-82
2021/08/07 02:06:40;;;;;;;14.10;7.97;;;;;;;;;;6250139;22;20062;-83
2021/08/07 02:09:07;;;;;;;15.02;9.00;;;;;;;;;;6248646;22;20036;-83
2021/08/07 02:11:34;;;;;;;11.73;8.43;;;;;;;;;;6249446;22;20055;-83
2021/08/07 02:14:01;;;;;;;13.77;7.85;;;;;;;;;;6249568;22;20257;-82
2021/08/07 02:16:28;;;;;;;15.05;9.30;;;;;;;;;;6276551;22;20291;-82
2021/08/07 02:18:56;;;;;;;13.00;8.77;;;;;;;;;;6249993;22;20024;-83
2021/08/07 02:21:22;;;;;;;15.02;9.45;;;;;;;;;;6247633;22;20381;-83
2021/08/07 02:23:49;;;;;;;13.82;9.25;;;;;;;;;;6274718;22;20066;-83
2021/08/07 02:26:21;;;;;;;21.58;9.25;;;;;;;;;;6249310;22;20028;-82
2021/08/07 02:28:48;;;;;;;19.70;10.30;;;;;;;;;;6248321;22;20034;-83
2021/08/07 02:31:14;;;;;;;17.83;10.77;;;;;;;;;;6276558;22;20071;-81
2021/08/07 02:33:45;;;;;;;15.52;10.05;;;;;;;;;;6251115;22;20028;-82
2021/08/07 02:36:14;;;;;;;17.88;11.00;;;;;;;;;;6286431;22;20026;-81
2021/08/07 02:38:41;;;;;;;18.13;10.18;;;;;;;;;;6271216;22;20035;-81
2021/08/07 02:41:09;;;;;;;18.08;11.07;;;;;;;;;;6267387;22;20432;-81
2021/08/07 02:43:36;;;;;;;17.20;11.25;;;;;;;;;;6258080;22;20027;-81
2021/08/07 02:46:02;;;;;;;22.77;12.13;;;;;;;;;;6282008;22;20023;-81
2021/08/07 02:48:31;;;;;;;19.02;12.38;;;;;;;;;;6279577;22;20381;-81
2021/08/07 02:50:58;;;;;;;16.50;11.77;;;;;;;;;;6250632;22;20279;-81
2021/08/07 02:53:25;;;;;;;16.55;12.70;;;;;;;;;;6250447;22;20086;-82
2021/08/07 02:55:52;;;;;;;18.38;12.25;;;;;;;;;;6277195;22;20080;-81
2021/08/07 02:58:20;;;;;;;19.50;12.57;;;;;;;;;;6252897;22;20053;-81
2021/08/07 03:00:47;;;;;;;14.93;11.23;;;;;;;;;;6286738;22;20027;-81
2021/08/07 03:03:14;;;;;;;20.85;12.55;;;;;;;;;;6287897;22;20038;-82
2021/08/07 03:05:42;;;;;;;27.27;13.75;;;;;;;;;;6297065;22;20063;-81
2021/08/07 03:08:09;;;;;;;26.75;13.07;;;;;;;;;;6268521;22;20024;-81
2021/08/07 03:10:36;;;;;;;20.67;12.85;;;;;;;;;;6260031;22;20355;-81
2021/08/07 03:13:03;;;;;;;21.67;13.88;;;;;;;;;;6281282;22;20280;-81
2021/08/07 03:15:30;;;;;;;17.55;12.95;;;;;;;;;;6288758;22;20043;-82
2021/08/07 03:17:56;;;;;;;22.25;13.20;;;;;;;;;;6267637;22;20047;-82
2021/08/07 03:20:30;;;;;;;20.35;13.93;;;;;;;;;;6253584;22;20033;-82
2021/08/07 03:23:01;;;;;;;23.38;14.38;;;;;;;;;;6278483;22;20047;-81
2021/08/07 03:25:28;;;;;;;20.88;13.02;;;;;;;;;;6278950;22;20075;-82
2021/08/07 03:27:55;;;;;;;21.05;13.73;;;;;;;;;;6251987;22;20103;-82
2021/08/07 03:30:22;;;;;;;20.13;14.25;;;;;;;;;;6253291;22;20074;-82
2021/08/07 03:32:49;;;;;;;21.77;13.82;;;;;;;;;;6250672;22;20099;-82
2021/08/07 03:35:16;;;;;;;23.13;14.05;;;;;;;;;;6252626;22;20441;-81
2021/08/07 03:37:42;;;;;;;25.15;13.93;;;;;;;;;;6252196;23;20021;-82
2021/08/07 03:40:10;;;;;;;20.70;14.27;;;;;;;;;;6223927;23;20319;-82
2021/08/07 03:42:46;;;;;;;22.42;14.15;;;;;;;;;;6222159;23;20020;-82
2021/08/07 03:45:13;;;;;;;17.88;13.27;;;;;;;;;;6247629;23;20035;-82
2021/08/07 03:47:52;;;;;;;15.30;12.60;;;;;;;;;;6221618;23;20028;-82
2021/08/07 03:50:20;;;;;;;21.13;13.43;;;;;;;;;;6223134;23;20024;-81
2021/08/07 03:52:47;;;;;;;19.83;13.27;;;;;;;;;;6247789;23;20024;-82
2021/08/07 03:55:17;;;;;;;19.42;13.80;;;;;;;;;;6249090;23;20020;-81
2021/08/07 03:57:47;;;;;;;21.30;14.23;;;;;;;;;;6223203;23;20024;-81
2021/08/07 04:00:15;;;;;;;20.70;13.25;;;;;;;;;;6222817;23;20251;-81
2021/08/07 04:02:45;;;;;;;24.73;13.73;;;;;;;;;;6246748;23;20298;-81
2021/08/07 04:05:12;;;;;;;17.65;13.45;;;;;;;;;;6221557;23;20024;-81
2021/08/07 04:07:39;;;;;;;15.75;12.82;;;;;;;;;;6230395;23;20028;-81
2021/08/07 04:10:07;;;;;;;17.40;13.20;;;;;;;;;;6233405;23;20023;-81
2021/08/07 04:12:37;;;;;;;20.83;14.38;;;;;;;;;;6227756;23;20072;-81
2021/08/07 04:15:04;;;;;;;23.45;13.20;;;;;;;;;;6222651;23;20143;-81
2021/08/07 04:17:31;;;;;;;16.00;12.63;;;;;;;;;;6248379;23;20108;-81
2021/08/07 04:19:58;;;;;;;23.50;13.32;;;;;;;;;;6246596;23;20055;-81
2021/08/07 04:22:24;;;;;;;20.92;14.55;;;;;;;;;;6247426;23;20023;-81
2021/08/07 04:24:51;;;;;;;18.77;13.48;;;;;;;;;;6246148;23;20067;-81
2021/08/07 04:27:20;;;;;;;20.13;12.93;;;;;;;;;;6221629;23;20024;-82
2021/08/07 04:29:48;;;;;;;21.23;11.68;;;;;;;;;;6221947;23;20059;-81
2021/08/07 04:32:15;;;;;;;15.57;11.38;;;;;;;;;;6247422;23;20028;-81
2021/08/07 04:34:42;;;;;;;15.70;11.32;;;;;;;;;;6240087;22;20098;-81
2021/08/07 04:37:09;;;;;;;19.83;11.32;;;;;;;;;;6295394;22;20079;-82
2021/08/07 04:39:36;;;;;;;18.83;11.88;;;;;;;;;;6289270;22;20069;-81
2021/08/07 04:42:03;;;;;;;20.15;10.90;;;;;;;;;;6275642;22;20106;-80
2021/08/07 04:44:29;;;;;;;22.15;11.18;;;;;;;;;;6274164;22;20313;-80
2021/08/07 04:47:00;;;;;;;19.33;11.35;;;;;;;;;;6246914;22;20183;-79
2021/08/07 04:49:26;;;;;;;16.63;11.07;;;;;;;;;;6245353;22;20028;-80
2021/08/07 04:51:53;;;;;;;17.38;11.15;;;;;;;;;;6245335;22;20028;-80
2021/08/07 04:54:19;;;;;;;15.68;11.77;;;;;;;;;;6273641;22;20067;-80
2021/08/07 04:56:46;;;;;;;19.05;11.45;;;;;;;;;;6273434;22;20115;-80
2021/08/07 04:59:13;;;;;;;19.42;10.95;;;;;;;;;;6245685;22;20099;-80
2021/08/07 05:01:40;;;;;;;14.07;9.45;;;;;;;;;;6244877;22;20480;-80
2021/08/07 05:04:07;;;;;;;19.55;10.65;;;;;;;;;;6244917;22;20028;-79
2021/08/07 05:06:34;;;;;;;16.38;11.38;;;;;;;;;;6273952;22;20023;-80
2021/08/07 05:09:00;;;;;;;13.32;10.75;;;;;;;;;;6244065;22;20219;-79
2021/08/07 05:11:27;;;;;;;20.10;9.40;;;;;;;;;;6272624;22;20035;-79
2021/08/07 05:13:53;;;;;;;15.13;10.10;;;;;;;;;;6245937;22;20028;-79
2021/08/07 05:16:24;;;;;;;13.63;9.02;;;;;;;;;;6274234;22;20027;-80
2021/08/07 05:18:51;;;;;;;15.73;9.70;;;;;;;;;;6246897;22;20039;-79
2021/08/07 05:21:17;;;;;;;15.02;9.00;;;;;;;;;;6273018;22;20054;-80
2021/08/07 05:23:44;;;;;;;14.40;8.52;;;;;;;;;;6273150;22;20098;-80
2021/08/07 05:26:11;;;;;;;11.88;8.05;;;;;;;;;;6272787;22;20153;-80
2021/08/07 05:28:37;;;;;;;13.57;8.20;;;;;;;;;;6246940;22;20468;-80
2021/08/07 05:31:04;;;;;;;12.48;7.40;;;;;;;;;;6273302;22;20105;-80
2021/08/07 05:33:31;;;;;;;11.95;7.93;;;;;;;;;;6245689;22;20028;-80
2021/08/07 05:35:57;;;;;;;13.35;6.85;;;;;;;;;;6246910;22;20246;-80
2021/08/07 05:38:24;;;;;;;9.40;7.43;;;;;;;;;;6246773;22;20122;-80
2021/08/07 05:40:51;;;;;;;13.35;6.70;;;;;;;;;;6272465;22;20024;-80
2021/08/07 05:43:18;;;;;;;11.60;7.18;;;;;;;;;;6251710;22;20047;-80
2021/08/07 05:45:45;;;;;;;12.75;7.00;;;;;;;;;;6280830;22;20093;-80
2021/08/07 05:48:12;;;;;;;11.55;6.72;;;;;;;;;;6247777;22;20035;-80
2021/08/07 05:50:38;;;;;;;11.60;6.05;;;;;;;;;;6245171;22;20037;-80
2021/08/07 05:53:05;;;;;;;10.32;5.78;;;;;;;;;;6275596;22;20035;-80
2021/08/07 05:55:32;;;;;;;9.05;5.32;;;;;;;;;;6252860;22;20027;-80
2021/08/07 05:57:59;;;;;;;7.70;4.88;;;;;;;;;;6247356;22;20107;-80
2021/08/07 06:00:26;;;;;;;8.18;5.57;;;;;;;;;;6243504;22;20259;-80
2021/08/07 06:02:53;;;;;;;10.10;5.53;;;;;;;;;;6269520;22;20198;-79
2021/08/07 06:05:20;;;;;;;11.75;5.68;;;;;;;;;;6245745;22;20085;-80
2021/08/07 06:07:49;;;;;;;9.20;6.05;;;;;;;;;;6247064;22;20331;-80
2021/08/07 06:10:20;;;;;;;13.27;5.80;;;;;;;;;;6273482;22;20114;-80
2021/08/07 06:12:47;;;;;;;8.30;5.60;;;;;;;;;;6274370;22;20031;-80
2021/08/07 06:15:14;;;;;;;10.23;5.90;;;;;;;;;;6247411;22;20032;-80
2021/08/07 06:17:40;;;;;;;9.15;4.63;;;;;;;;;;6246451;22;20393;-80
2021/08/07 06:20:09;;;;;;;10.15;4.80;;;;;;;;;;6257360;22;20038;-80
2021/08/07 06:22:35;;;;;;;13.20;5.60;;;;;;;;;;6267564;22;20015;-80
2021/08/07 06:25:03;;;;;;;9.30;4.47;;;;;;;;;;6278105;22;20439;-81
2021/08/07 06:27:31;;;;;;;7.97;4.63;;;;;;;;;;6271544;22;20028;-80
2021/08/07 06:29:57;;;;;;;8.48;5.10;;;;;;;;;;6272986;22;20400;-82
2021/08/07 06:32:24;;;;;;;10.55;4.47;;;;;;;;;;6243510;22;20038;-81
2021/08/07 06:34:51;;;;;;;10.90;5.15;;;;;;;;;;6245983;22;20120;-81
2021/08/07 06:37:18;;;;;;;13.50;5.35;;;;;;;;;;6243795;22;20063;-80
2021/08/07 06:39:45;;;;;;;6.97;5.45;;;;;;;;;;6244957;22;20316;-81
2021/08/07 06:42:12;;;;;;;13.70;5.20;;;;;;;;;;6246440;22;20058;-81
2021/08/07 06:44:38;;;;;;;8.25;4.80;;;;;;;;;;6247325;22;20023;-81
2021/08/07 06:47:05;;;;;;;9.60;5.20;;;;;;;;;;6248455;22;20413;-82
2021/08/07 06:49:32;;;;;;;8.07;5.10;;;;;;;;;;6246104;22;20027;-81
2021/08/07 06:51:59;;;;;;;9.90;5.30;;;;;;;;;;6273815;22;20020;-81
2021/08/07 06:54:26;;;;;;;13.90;5.80;;;;;;;;;;6275353;22;20027;-81
2021/08/07 06:56:52;;;;;;;8.27;5.00;;;;;;;;;;6289927;22;20047;-81
2021/08/07 06:59:20;;;;;;;10.40;4.97;;;;;;;;;;6287315;22;20019;-81
2021/08/07 07:01:49;;;;;;;6.40;4.97;;;;;;;;;;6262524;22;20098;-82
2021/08/07 07:04:16;;;;;;;9.82;5.68;;;;;;;;;;6263809;22;20023;-82
2021/08/07 07:06:43;;;;;;;9.95;5.25;;;;;;;;;;6275702;22;20114;-81
2021/08/07 07:09:13;;;;;;;8.40;5.03;;;;;;;;;;6247184;22;20051;-82
2021/08/07 07:11:40;;;;;;;10.45;5.10;;;;;;;;;;6277153;22;20451;-82
2021/08/07 07:14:07;;;;;;;7.10;4.30;;;;;;;;;;6250185;22;20062;-82
2021/08/07 07:16:40;;;;;;;11.52;4.50;;;;;;;;;;6249787;22;20062;-82
2021/08/07 07:19:09;;;;;;;7.27;3.77;;;;;;;;;;6247992;22;20050;-82
2021/08/07 07:21:41;;;;;;;10.32;3.75;;;;;;;;;;6273121;22;20051;-82
2021/08/07 07:24:09;;;;;;;8.10;4.05;;;;;;;;;;6246755;22;20162;-82
2021/08/07 07:26:35;;;;;;;6.78;4.03;;;;;;;;;;6248295;22;20019;-82
2021/08/07 07:29:04;;;;;;;7.90;3.03;;;;;;;;;;6250380;22;20047;-81
2021/08/07 07:31:32;;;;;;;3.30;2.58;;;;;;;;;;6278187;22;20027;-83
2021/08/07 07:33:59;;;;;;;4.75;2.33;;;;;;;;;;6250775;22;20024;-81
2021/08/07 07:36:25;;;;;;;7.20;2.88;;;;;;;;;;6277980;22;20024;-81
2021/08/07 07:38:55;;;;;;;7.53;2.80;;;;;;;;;;6273010;22;20024;-82
2021/08/07 07:41:22;;;;;;;5.53;2.60;;;;;;;;;;6247659;22;20036;-81
2021/08/07 07:43:48;;;;;;;6.18;2.60;;;;;;;;;;6245272;22;20408;-81
2021/08/07 07:46:15;;;;;;;5.75;2.50;;;;;;;;;;6243557;22;20027;-81
2021/08/07 07:48:42;;;;;;;5.68;2.38;;;;;;;;;;6244385;22;20086;-81
2021/08/07 07:51:09;;;;;;;3.85;2.28;;;;;;;;;;6244250;22;20024;-82
2021/08/07 07:53:36;;;;;;;7.28;2.03;;;;;;;;;;6273870;22;20193;-82
2021/08/07 07:56:03;;;;;;;9.30;2.58;;;;;;;;;;6251074;22;20028;-81
2021/08/07 07:58:29;;;;;;;6.00;2.33;;;;;;;;;;6281856;22;20023;-81
2021/08/07 08:00:56;;;;;;;5.90;2.30;;;;;;;;;;6282237;22;20024;-81
2021/08/07 08:03:24;;;;;;;7.18;1.85;;;;;;;;;;6245050;22;20033;-82
2021/08/07 08:05:51;;;;;;;5.95;2.22;;;;;;;;;;6244501;22;20077;-82
2021/08/07 08:08:18;;;;;;;5.78;1.98;;;;;;;;;;6272982;22;20047;-83
2021/08/07 08:10:50;;;;;;;6.15;1.80;;;;;;;;;;6245354;22;20106;-83
2021/08/07 08:13:19;;;;;;;6.00;1.92;;;;;;;;;;6242863;22;20323;-82
2021/08/07 08:15:46;;;;;;;6.65;2.40;;;;;;;;;;6273436;22;20070;-83
2021/08/07 08:18:15;;;;;;;5.38;1.65;;;;;;;;;;6277925;22;20468;-83
2021/08/07 08:20:41;;;;;;;3.92;1.40;;;;;;;;;;6251310;22;20106;-84
2021/08/07 08:23:08;;;;;;;5.07;1.88;;;;;;;;;;6273348;22;20138;-84
2021/08/07 08:25:35;;;;;;;2.47;1.60;;;;;;;;;;6270081;22;20349;-84
2021/08/07 08:28:08;;;;;;;5.65;1.70;;;;;;;;;;6271138;22;20020;-84
2021/08/07 08:30:35;;;;;;;7.95;1.98;;;;;;;;;;6245863;22;20050;-84
2021/08/07 08:33:02;;;;;;;2.03;1.23;;;;;;;;;;6243012;22;20071;-83
2021/08/07 08:35:29;;;;;;;3.72;1.38;;;;;;;;;;6270770;22;20020;-84
2021/08/07 08:38:03;;;;;;;2.70;1.42;;;;;;;;;;6271360;22;20034;-84
2021/08/07 08:40:30;;;;;;;5.30;1.02;;;;;;;;;;6271370;22;20023;-84
2021/08/07 08:42:57;;;;;;;5.43;1.30;;;;;;;;;;6252296;22;20414;-84
2021/08/07 08:45:28;;;;;;;5.75;1.98;;;;;;;;;;6260894;22;20034;-84
2021/08/07 08:47:55;;;;;;;6.40;1.23;;;;;;;;;;6281575;22;20398;-84
2021/08/07 08:50:26;;;;;;;2.38;1.05;;;;;;;;;;6272191;22;20047;-82
2021/08/07 08:52:56;;;;;;;4.18;1.40;;;;;;;;;;6274389;22;20027;-84
2021/08/07 08:55:22;;;;;;;7.43;1.45;;;;;;;;;;6260491;22;20047;-82
2021/08/07 08:57:55;;;;;;;3.75;1.33;;;;;;;;;;6248289;22;20055;-82
2021/08/07 09:00:28;;;;;;;3.75;1.25;;;;;;;;;;6246708;22;20023;-83
2021/08/07 09:02:55;;;;;;;7.63;1.50;;;;;;;;;;6244336;22;20362;-83
2021/08/07 09:05:22;;;;;;;7.55;1.50;;;;;;;;;;6245809;22;20050;-83
2021/08/07 09:07:49;;;;;;;4.32;1.10;;;;;;;;;;6243203;22;20490;-83
2021/08/07 09:10:20;;;;;;;5.32;1.50;;;;;;;;;;6245865;22;20019;-83
2021/08/07 09:12:49;;;;;;;5.05;1.33;;;;;;;;;;6270657;22;20086;-83
2021/08/07 09:15:27;;;;;;;4.05;1.25;;;;;;;;;;6268573;22;20034;-83
2021/08/07 09:18:14;;;;;;;3.85;1.00;;;;;;;;;;6240658;22;20376;-83
2021/08/07 09:20:50;;;;;;;5.05;1.05;;;;;;;;;;6269344;22;20054;-83
2021/08/07 09:23:39;;;;;;;5.00;1.10;;;;;;;;;;6242789;22;20024;-84
2021/08/07 09:26:22;;;;;;;3.60;1.17;;;;;;;;;;6244040;22;20097;-84
2021/08/07 09:28:56;;;;;;;6.60;1.10;;;;;;;;;;6243493;22;20094;-84
2021/08/07 09:31:25;;;;;;;4.97;1.02;;;;;;;;;;6249035;22;20170;-84
2021/08/07 09:34:11;;;;;;;3.35;0.90;;;;;;;;;;6237428;22;20035;-83
2021/08/07 09:36:56;;;;;;;3.35;0.93;;;;;;;;;;6241377;23;20035;-83
2021/08/07 09:39:39;;;;;;;5.63;0.90;;;;;;;;;;6221710;22;20119;-83
2021/08/07 09:42:08;;;;;;;6.75;1.13;;;;;;;;;;6231156;22;20075;-84
2021/08/07 09:44:36;;;;;;;3.22;1.13;;;;;;;;;;6244087;23;20058;-84
2021/08/07 09:47:05;;;;;;;3.65;0.85;;;;;;;;;;6214749;23;20494;-84
2021/08/07 09:49:33;;;;;;;2.13;0.70;;;;;;;;;;6212576;23;20055;-84
2021/08/07 09:52:00;;;;;;;7.32;1.20;;;;;;;;;;6238221;23;20100;-84
2021/08/07 09:54:35;;;;;;;6.20;1.10;;;;;;;;;;6237628;23;20028;-83
2021/08/07 09:57:02;;;;;;;5.93;1.20;;;;;;;;;;6209933;23;20028;-84
2021/08/07 09:59:33;;;;;;;3.90;1.08;;;;;;;;;;6209836;23;20035;-84
2021/08/07 10:02:17;;;;;;;4.68;1.48;;;;;;;;;;6213708;23;20035;-84
2021/08/07 10:04:44;;;;;;;3.95;1.00;;;;;;;;;;6238539;23;20025;-83
2021/08/07 10:07:11;;;;;;;5.22;1.13;;;;;;;;;;6212066;23;20028;-84
2021/08/07 10:09:38;;;;;;;6.13;0.95;;;;;;;;;;6211800;23;20025;-83
2021/08/07 10:12:09;;;;;;;3.13;0.98;;;;;;;;;;6212516;23;20031;-84
2021/08/07 10:14:37;;;;;;;1.55;0.70;;;;;;;;;;6213484;23;20103;-84
2021/08/07 10:17:05;;;;;;;2.15;0.90;;;;;;;;;;6214051;23;20259;-84
2021/08/07 10:19:32;;;;;;;5.25;1.08;;;;;;;;;;6249180;23;20072;-83
2021/08/07 10:22:01;;;;;;;4.63;1.00;;;;;;;;;;6226487;23;20490;-84
2021/08/07 10:24:28;;;;;;;3.33;0.90;;;;;;;;;;6209664;23;20374;-84
2021/08/07 10:26:58;;;;;;;5.07;1.15;;;;;;;;;;6239418;23;20078;-84
2021/08/07 10:29:44;;;;;;;4.82;1.00;;;;;;;;;;6239787;23;20050;-84
2021/08/07 10:32:12;;;;;;;4.72;1.08;;;;;;;;;;6211672;23;20028;-84
2021/08/07 10:34:41;;;;;;;6.60;1.20;;;;;;;;;;6233879;22;20028;-84
2021/08/07 10:37:09;;;;;;;2.50;0.85;;;;;;;;;;6255585;22;20022;-84
2021/08/07 10:39:36;;;;;;;2.47;0.93;;;;;;;;;;6283481;22;20024;-84
2021/08/07 10:42:03;;;;;;;2.83;1.20;;;;;;;;;;6284244;22;20019;-84
2021/08/07 10:44:31;;;;;;;3.38;1.35;;;;;;;;;;6260692;22;20035;-84
2021/08/07 10:46:58;;;;;;;3.83;1.13;;;;;;;;;;6277803;22;20023;-84
2021/08/07 10:49:38;;;;;;;6.43;1.70;;;;;;;;;;6244017;22;20024;-83
2021/08/07 10:52:21;;;;;;;3.83;1.80;;;;;;;;;;6269203;22;20046;-84
2021/08/07 10:54:55;;;;;;;4.05;1.73;;;;;;;;;;6270616;22;20028;-84
2021/08/07 10:57:35;;;;;;;2.75;2.17;;;;;;;;;;6267866;22;20076;-84
2021/08/07 11:00:15;;;;;;;3.42;2.58;;;;;;;;;;6242065;22;20024;-84
2021/08/07 11:02:43;;;;;;;7.57;3.08;;;;;;;;;;6243785;22;20166;-84
2021/08/07 11:05:11;;;;;;;3.17;2.55;;;;;;;;;;6246081;22;20079;-84
2021/08/07 11:07:37;;;;;;;4.43;2.30;;;;;;;;;;6269508;22;20026;-84
2021/08/07 11:10:15;;;;;;;6.18;2.30;;;;;;;;;;6242284;22;20023;-84
2021/08/07 11:12:45;;;;;;;4.82;1.90;;;;;;;;;;6270706;22;20236;-85
2021/08/07 11:15:15;;;;;;;3.28;1.42;;;;;;;;;;6246610;22;20024;-85
2021/08/07 11:17:43;;;;;;;4.28;1.42;;;;;;;;;;6244056;22;20382;-85
2021/08/07 11:20:14;;;;;;;4.07;1.60;;;;;;;;;;6271736;22;20313;-85
2021/08/07 11:22:41;;;;;;;2.75;1.40;;;;;;;;;;6243143;22;20421;-85
2021/08/07 11:25:14;;;;;;;4.82;1.35;;;;;;;;;;6241940;22;20049;-85
2021/08/07 11:30:24;;;;;;;3.35;0.90;;;;;;;;;;6271532;22;20031;-84
2021/08/07 11:33:30;;;;;;;2.75;1.00;;;;;;;;;;6246550;22;20029;-85
2021/08/07 11:35:50;;;;;;;5.28;1.27;;;;;;;;;;6268836;22;20406;-85
2021/08/07 11:38:22;;;;;;;1.73;1.05;;;;;;;;;;6234018;22;20106;-87
2021/08/07 11:40:53;;;;;;;2.15;1.10;;;;;;;;;;6248815;22;20067;-85
2021/08/07 11:43:23;;;;;;;4.50;1.17;;;;;;;;;;6262138;22;20019;-85
2021/08/07 11:46:00;;;;;;;3.55;1.30;;;;;;;;;;6267115;22;20031;-85
2021/08/07 11:48:34;;;;;;;2.42;1.10;;;;;;;;;;6252849;22;20479;-86
2021/08/07 11:51:06;;;;;;;3.85;1.42;;;;;;;;;;6249532;22;20079;-86
2021/08/07 11:53:34;;;;;;;4.80;1.10;;;;;;;;;;6259842;22;20053;-87
2021/08/07 11:56:01;;;;;;;6.05;1.20;;;;;;;;;;6260048;22;20076;-87
2021/08/07 11:58:29;;;;;;;3.05;1.45;;;;;;;;;;6257082;22;20084;-86
2021/08/07 12:01:01;;;;;;;5.78;2.00;;;;;;;;;;6262988;22;20228;-87
2021/08/07 12:03:37;;;;;;;4.47;1.55;;;;;;;;;;6272619;22;20284;-87
2021/08/07 12:06:04;;;;;;;4.57;1.45;;;;;;;;;;6274311;22;20019;-87
2021/08/07 12:08:35;;;;;;;4.78;1.45;;;;;;;;;;6244665;22;20024;-87
2021/08/07 12:11:03;;;;;;;4.45;1.35;;;;;;;;;;6254762;22;20024;-88
2021/08/07 12:13:32;;;;;;;2.05;1.30;;;;;;;;;;6265413;22;20015;-86
2021/08/07 12:16:19;;;;;;;5.03;1.60;;;;;;;;;;6263585;22;20028;-86
2021/08/07 12:19:05;;;;;;;4.35;1.40;;;;;;;;;;6256457;22;20127;-86
2021/08/07 12:21:41;;;;;;;1.80;1.05;;;;;;;;;;6272899;22;20035;-87
2021/08/07 12:24:10;;;;;;;3.85;1.13;;;;;;;;;;6283998;22;20031;-86
2021/08/07 12:26:42;;;;;;;2.13;1.20;;;;;;;;;;6291302;22;20023;-85
2021/08/07 12:29:14;;;;;;;4.15;1.30;;;;;;;;;;6261327;22;20032;-85
2021/08/07 12:31:46;;;;;;;2.97;1.35;;;;;;;;;;6286783;22;20122;-86
2021/08/07 12:34:24;;;;;;;1.40;1.00;;;;;;;;;;6289617;22;20031;-86
2021/08/07 12:37:01;;;;;;;4.80;0.90;;;;;;;;;;6262104;22;20024;-86
2021/08/07 12:39:29;;;;;;;2.45;1.10;;;;;;;;;;6253643;22;20027;-86
2021/08/07 12:41:56;;;;;;;4.22;1.08;;;;;;;;;;6260311;22;20031;-86
2021/08/07 12:44:27;;;;;;;2.83;1.17;;;;;;;;;;6261072;22;20027;-87
2021/08/07 12:46:57;;;;;;;2.05;1.00;;;;;;;;;;6248020;22;20074;-87
2021/08/07 12:49:33;;;;;;;4.43;1.33;;;;;;;;;;6272010;22;20079;-85
2021/08/07 12:52:00;;;;;;;;;;;;;;;;;;6284878;22;20369;-85
2021/08/07 12:54:27;;;;;;;5.90;1.10;;;;;;;;;;6264649;22;19942;-86
2021/08/07 12:56:54;;;;;;;4.85;1.20;;;;;;;;;;6267181;22;20016;-85
2021/08/07 12:59:23;;;;;;;3.67;0.90;;;;;;;;;;6266634;22;20181;-84
2021/08/07 13:02:14;;;;;;;1.90;0.60;;;;;;;;;;6295686;22;20020;-88
2021/08/07 13:04:49;;;;;;;1.85;0.63;;;;;;;;;;6268885;22;20012;-86
2021/08/07 13:07:16;;;;;;;1.58;0.45;;;;;;;;;;6290998;22;20035;-85
2021/08/07 13:09:44;;;;;;;2.95;0.63;;;;;;;;;;6270471;22;20027;-85
2021/08/07 13:12:21;;;;;;;3.38;0.70;;;;;;;;;;6291897;22;20028;-86
2021/08/07 13:15:01;;;;;;;0.45;0.40;;;;;;;;;;6291865;22;20030;-86
2021/08/07 13:17:36;;;;;;;1.88;0.50;;;;;;;;;;6258127;22;20024;-85
2021/08/07 13:20:04;;;;;;;1.00;0.38;;;;;;;;;;6265595;22;20310;-85
2021/08/07 13:22:31;;;;;;;1.45;0.63;;;;;;;;;;6253102;22;20090;-85
2021/08/07 13:25:01;;;;;;;1.20;0.57;;;;;;;;;;6277502;22;20081;-85
2021/08/07 13:27:42;;;;;;;2.85;0.50;;;;;;;;;;6274055;22;20032;-85
2021/08/07 13:30:10;;;;;;;2.03;0.65;;;;;;;;;;6245557;22;20098;-85
2021/08/07 13:32:38;;;;;;;1.77;0.60;;;;;;;;;;6270283;22;20024;-85
2021/08/07 13:35:06;;;;;;;1.17;0.40;;;;;;;;;;6247946;22;20024;-85
2021/08/07 13:37:33;;;;;;;0.70;0.40;;;;;;;;;;6247170;22;20043;-85
2021/08/07 13:40:00;;;;;;;1.65;0.68;;;;;;;;;;6271270;22;20076;-84
2021/08/07 13:42:27;;;;;;;1.98;0.40;;;;;;;;;;6282646;22;20016;-85
2021/08/07 13:44:55;;;;;;;0.80;0.45;;;;;;;;;;6264322;22;20019;-85
2021/08/07 13:47:22;;;;;;;1.30;0.50;;;;;;;;;;6242686;22;20144;-85
2021/08/07 13:49:49;;;;;;;1.08;0.50;;;;;;;;;;6272813;22;20059;-85
2021/08/07 13:52:16;;;;;;;2.28;0.70;;;;;;;;;;6250010;22;20030;-85
2021/08/07 13:54:42;;;;;;;1.48;0.63;;;;;;;;;;6245475;22;20070;-85
2021/08/07 13:57:10;;;;;;;1.63;0.70;;;;;;;;;;6240111;22;20035;-85
2021/08/07 13:59:38;;;;;;;1.55;0.60;;;;;;;;;;6271821;22;20023;-85
2021/08/07 14:02:06;;;;;;;2.05;0.70;;;;;;;;;;6242408;22;20019;-85
2021/08/07 14:04:34;;;;;;;1.40;0.57;;;;;;;;;;6244784;22;20024;-85
2021/08/07 14:07:00;;;;;;;2.08;0.45;;;;;;;;;;6241046;22;20293;-85
2021/08/07 14:09:30;;;;;;;2.78;0.82;;;;;;;;;;6242947;22;20048;-85
2021/08/07 14:11:57;;;;;;;2.38;0.80;;;;;;;;;;6249304;22;20035;-85
2021/08/07 14:14:25;;;;;;;3.35;0.82;;;;;;;;;;6247468;22;20027;-83
2021/08/07 14:16:52;;;;;;;1.67;0.50;;;;;;;;;;6241178;22;20030;-83
2021/08/07 14:19:20;;;;;;;3.67;0.50;;;;;;;;;;6238175;22;20690;-83
2021/08/07 14:21:50;;;;;;;2.53;0.60;;;;;;;;;;6238272;22;20023;-83
2021/08/07 14:24:18;;;;;;;3.42;0.63;;;;;;;;;;6267007;22;20412;-83
2021/08/07 14:26:48;;;;;;;2.05;0.55;;;;;;;;;;6269887;22;20024;-83
2021/08/07 14:29:18;;;;;;;1.80;0.63;;;;;;;;;;6240293;22;20063;-83
2021/08/07 14:31:46;;;;;;;2.55;0.73;;;;;;;;;;6240266;22;20020;-83
2021/08/07 14:34:14;;;;;;;1.00;0.63;;;;;;;;;;6267281;22;20028;-83
2021/08/07 14:36:47;;;;;;;2.35;0.55;;;;;;;;;;6243836;22;20027;-85
2021/08/07 14:39:15;;;;;;;2.25;0.60;;;;;;;;;;6243284;22;20068;-83
2021/08/07 14:41:44;;;;;;;2.38;0.55;;;;;;;;;;6292832;22;20204;-84
2021/08/07 14:44:11;;;;;;;2.38;0.65;;;;;;;;;;6288527;22;20047;-84
2021/08/07 14:46:38;;;;;;;1.55;0.57;;;;;;;;;;6246153;22;20043;-84
2021/08/07 14:49:05;;;;;;;2.30;0.77;;;;;;;;;;6243733;22;20132;-84